ΕΜΥ, Εθνική Μετεωρολογική Υπηρεσία - Δελτία Καιρού, Προγνώσεις

ΑΕΡΟΝΑΥΤΙΛΙΑ

GREEK AIRPORTS CODES

TAF LGSM 210500Z 2106/2115 36010KT 9999 FEW018TCU BKN020 TEMPO 2106/2109 5000 RA FEW012 FEW018TCU BKN025 BECMG 2106/2108 36010G20KT TEMPO 2107/2115 36015G25KT=

EUROPEAN AIRPORTS CODES